sensor_id;sensor_type;location;lat;lon;timestamp;P1;durP1;ratioP1;P2;durP2;ratioP2
16665;SDS011;8446;50.998;6.250;2023-05-17T00:01:51;7.93;;;2.60;;
16665;SDS011;8446;50.998;6.250;2023-05-17T00:04:20;3.97;;;3.00;;
16665;SDS011;8446;50.998;6.250;2023-05-17T00:06:48;6.50;;;2.77;;
16665;SDS011;8446;50.998;6.250;2023-05-17T00:09:15;6.73;;;2.57;;
16665;SDS011;8446;50.998;6.250;2023-05-17T00:11:42;4.13;;;2.67;;
16665;SDS011;8446;50.998;6.250;2023-05-17T00:14:09;9.37;;;3.10;;
16665;SDS011;8446;50.998;6.250;2023-05-17T00:16:36;3.00;;;2.70;;
16665;SDS011;8446;50.998;6.250;2023-05-17T00:19:03;4.17;;;2.50;;
16665;SDS011;8446;50.998;6.250;2023-05-17T00:21:32;3.07;;;2.40;;
16665;SDS011;8446;50.998;6.250;2023-05-17T00:24:01;4.87;;;2.67;;
16665;SDS011;8446;50.998;6.250;2023-05-17T00:26:27;3.40;;;2.70;;
16665;SDS011;8446;50.998;6.250;2023-05-17T00:28:54;4.40;;;2.50;;
16665;SDS011;8446;50.998;6.250;2023-05-17T00:31:21;3.23;;;2.50;;
16665;SDS011;8446;50.998;6.250;2023-05-17T00:33:48;3.03;;;2.27;;
16665;SDS011;8446;50.998;6.250;2023-05-17T00:36:15;4.40;;;2.87;;
16665;SDS011;8446;50.998;6.250;2023-05-17T00:38:42;4.50;;;2.53;;
16665;SDS011;8446;50.998;6.250;2023-05-17T00:41:10;3.30;;;3.00;;
16665;SDS011;8446;50.998;6.250;2023-05-17T00:43:37;5.83;;;3.23;;
16665;SDS011;8446;50.998;6.250;2023-05-17T00:46:04;5.77;;;3.30;;
16665;SDS011;8446;50.998;6.250;2023-05-17T00:48:31;4.10;;;3.63;;
16665;SDS011;8446;50.998;6.250;2023-05-17T00:50:58;9.77;;;3.58;;
16665;SDS011;8446;50.998;6.250;2023-05-17T00:53:25;4.03;;;2.70;;
16665;SDS011;8446;50.998;6.250;2023-05-17T00:55:53;6.50;;;3.33;;
16665;SDS011;8446;50.998;6.250;2023-05-17T00:58:22;4.73;;;3.27;;
16665;SDS011;8446;50.998;6.250;2023-05-17T01:00:49;6.77;;;3.93;;
16665;SDS011;8446;50.998;6.250;2023-05-17T01:03:16;7.30;;;4.37;;
16665;SDS011;8446;50.998;6.250;2023-05-17T01:05:43;4.13;;;3.70;;
16665;SDS011;8446;50.998;6.250;2023-05-17T01:08:10;5.53;;;3.80;;
16665;SDS011;8446;50.998;6.250;2023-05-17T01:10:48;6.55;;;3.85;;
16665;SDS011;8446;50.998;6.250;2023-05-17T01:13:21;3.85;;;3.45;;
16665;SDS011;8446;50.998;6.250;2023-05-17T01:15:55;6.00;;;3.38;;
16665;SDS011;8446;50.998;6.250;2023-05-17T01:18:32;3.95;;;3.15;;
16665;SDS011;8446;50.998;6.250;2023-05-17T01:21:10;3.38;;;3.08;;
16665;SDS011;8446;50.998;6.250;2023-05-17T01:23:54;9.00;;;4.00;;
16665;SDS011;8446;50.998;6.250;2023-05-17T01:26:34;5.18;;;2.90;;
16665;SDS011;8446;50.998;6.250;2023-05-17T01:29:03;7.05;;;3.75;;
16665;SDS011;8446;50.998;6.250;2023-05-17T01:31:33;4.85;;;3.40;;
16665;SDS011;8446;50.998;6.250;2023-05-17T01:34:04;10.05;;;3.10;;
16665;SDS011;8446;50.998;6.250;2023-05-17T01:36:32;6.82;;;3.70;;
16665;SDS011;8446;50.998;6.250;2023-05-17T01:38:59;9.68;;;3.53;;
16665;SDS011;8446;50.998;6.250;2023-05-17T01:41:26;5.15;;;2.90;;
16665;SDS011;8446;50.998;6.250;2023-05-17T01:44:01;5.82;;;3.50;;
16665;SDS011;8446;50.998;6.250;2023-05-17T01:46:37;7.22;;;4.13;;
16665;SDS011;8446;50.998;6.250;2023-05-17T01:49:07;9.77;;;3.95;;
16665;SDS011;8446;50.998;6.250;2023-05-17T01:51:41;10.57;;;4.15;;
16665;SDS011;8446;50.998;6.250;2023-05-17T01:54:12;4.75;;;3.75;;
16665;SDS011;8446;50.998;6.250;2023-05-17T01:56:45;3.35;;;3.05;;
16665;SDS011;8446;50.998;6.250;2023-05-17T01:59:18;6.40;;;3.20;;
16665;SDS011;8446;50.998;6.250;2023-05-17T02:01:49;7.00;;;3.80;;
16665;SDS011;8446;50.998;6.250;2023-05-17T02:04:19;5.57;;;3.35;;
16665;SDS011;8446;50.998;6.250;2023-05-17T02:06:45;10.30;;;3.80;;
16665;SDS011;8446;50.998;6.250;2023-05-17T02:09:13;12.05;;;3.85;;
16665;SDS011;8446;50.998;6.250;2023-05-17T02:11:40;4.75;;;4.35;;
16665;SDS011;8446;50.998;6.250;2023-05-17T02:14:07;13.57;;;4.60;;
16665;SDS011;8446;50.998;6.250;2023-05-17T02:16:35;13.82;;;5.15;;
16665;SDS011;8446;50.998;6.250;2023-05-17T02:19:02;12.45;;;4.53;;
16665;SDS011;8446;50.998;6.250;2023-05-17T02:21:29;21.08;;;5.13;;
16665;SDS011;8446;50.998;6.250;2023-05-17T02:23:56;17.10;;;4.47;;
16665;SDS011;8446;50.998;6.250;2023-05-17T02:26:23;9.10;;;3.88;;
16665;SDS011;8446;50.998;6.250;2023-05-17T02:28:50;9.85;;;4.30;;
16665;SDS011;8446;50.998;6.250;2023-05-17T02:31:17;22.75;;;4.65;;
16665;SDS011;8446;50.998;6.250;2023-05-17T02:33:45;8.25;;;4.75;;
16665;SDS011;8446;50.998;6.250;2023-05-17T02:36:12;7.45;;;4.15;;
16665;SDS011;8446;50.998;6.250;2023-05-17T02:38:39;9.02;;;4.13;;
16665;SDS011;8446;50.998;6.250;2023-05-17T02:41:06;12.95;;;4.28;;
16665;SDS011;8446;50.998;6.250;2023-05-17T02:43:33;13.07;;;4.07;;
16665;SDS011;8446;50.998;6.250;2023-05-17T02:46:00;11.85;;;5.70;;
16665;SDS011;8446;50.998;6.250;2023-05-17T02:48:27;14.77;;;5.38;;
16665;SDS011;8446;50.998;6.250;2023-05-17T02:50:55;23.10;;;5.10;;
16665;SDS011;8446;50.998;6.250;2023-05-17T02:53:22;11.82;;;5.10;;
16665;SDS011;8446;50.998;6.250;2023-05-17T02:55:48;18.27;;;4.78;;
16665;SDS011;8446;50.998;6.250;2023-05-17T02:58:16;11.00;;;3.72;;
16665;SDS011;8446;50.998;6.250;2023-05-17T03:00:43;8.13;;;4.82;;
16665;SDS011;8446;50.998;6.250;2023-05-17T03:03:11;16.15;;;4.72;;
16665;SDS011;8446;50.998;6.250;2023-05-17T03:05:38;6.15;;;3.90;;
16665;SDS011;8446;50.998;6.250;2023-05-17T03:08:06;12.80;;;5.07;;
16665;SDS011;8446;50.998;6.250;2023-05-17T03:10:33;12.45;;;4.43;;
16665;SDS011;8446;50.998;6.250;2023-05-17T03:13:00;9.55;;;4.88;;
16665;SDS011;8446;50.998;6.250;2023-05-17T03:15:27;15.40;;;4.60;;
16665;SDS011;8446;50.998;6.250;2023-05-17T03:17:54;14.68;;;4.20;;
16665;SDS011;8446;50.998;6.250;2023-05-17T03:20:21;9.77;;;4.43;;
16665;SDS011;8446;50.998;6.250;2023-05-17T03:22:49;10.32;;;5.25;;
16665;SDS011;8446;50.998;6.250;2023-05-17T03:25:17;6.35;;;4.53;;
16665;SDS011;8446;50.998;6.250;2023-05-17T03:27:44;10.93;;;5.38;;
16665;SDS011;8446;50.998;6.250;2023-05-17T03:30:11;13.10;;;5.05;;
16665;SDS011;8446;50.998;6.250;2023-05-17T03:32:39;20.65;;;4.82;;
16665;SDS011;8446;50.998;6.250;2023-05-17T03:35:06;13.68;;;5.10;;
16665;SDS011;8446;50.998;6.250;2023-05-17T03:37:33;7.03;;;5.00;;
16665;SDS011;8446;50.998;6.250;2023-05-17T03:40:00;14.25;;;5.75;;
16665;SDS011;8446;50.998;6.250;2023-05-17T03:42:28;8.77;;;4.50;;
16665;SDS011;8446;50.998;6.250;2023-05-17T03:44:56;7.15;;;4.60;;
16665;SDS011;8446;50.998;6.250;2023-05-17T03:47:23;16.73;;;5.82;;
16665;SDS011;8446;50.998;6.250;2023-05-17T03:49:49;5.90;;;4.10;;
16665;SDS011;8446;50.998;6.250;2023-05-17T03:52:16;7.53;;;4.82;;
16665;SDS011;8446;50.998;6.250;2023-05-17T03:54:43;12.20;;;4.95;;
16665;SDS011;8446;50.998;6.250;2023-05-17T03:57:10;12.95;;;4.78;;
16665;SDS011;8446;50.998;6.250;2023-05-17T03:59:38;6.57;;;4.97;;
16665;SDS011;8446;50.998;6.250;2023-05-17T04:02:05;10.98;;;4.50;;
16665;SDS011;8446;50.998;6.250;2023-05-17T04:04:32;7.88;;;5.18;;
16665;SDS011;8446;50.998;6.250;2023-05-17T04:06:59;10.85;;;4.57;;
16665;SDS011;8446;50.998;6.250;2023-05-17T04:09:26;21.42;;;4.93;;
16665;SDS011;8446;50.998;6.250;2023-05-17T04:11:53;16.13;;;5.78;;
16665;SDS011;8446;50.998;6.250;2023-05-17T04:14:20;10.45;;;5.32;;
16665;SDS011;8446;50.998;6.250;2023-05-17T04:16:48;18.63;;;4.90;;
16665;SDS011;8446;50.998;6.250;2023-05-17T04:19:15;12.80;;;5.82;;
16665;SDS011;8446;50.998;6.250;2023-05-17T04:21:43;15.98;;;4.95;;
16665;SDS011;8446;50.998;6.250;2023-05-17T04:24:10;7.00;;;4.50;;
16665;SDS011;8446;50.998;6.250;2023-05-17T04:26:37;12.85;;;4.90;;
16665;SDS011;8446;50.998;6.250;2023-05-17T04:29:04;8.75;;;5.28;;
16665;SDS011;8446;50.998;6.250;2023-05-17T04:31:33;27.92;;;5.32;;
16665;SDS011;8446;50.998;6.250;2023-05-17T04:34:01;10.90;;;6.50;;
16665;SDS011;8446;50.998;6.250;2023-05-17T04:36:28;19.00;;;4.40;;
16665;SDS011;8446;50.998;6.250;2023-05-17T04:38:55;18.88;;;5.60;;
16665;SDS011;8446;50.998;6.250;2023-05-17T04:41:23;11.70;;;5.30;;
16665;SDS011;8446;50.998;6.250;2023-05-17T04:43:50;8.13;;;4.72;;
16665;SDS011;8446;50.998;6.250;2023-05-17T04:46:17;13.20;;;5.10;;
16665;SDS011;8446;50.998;6.250;2023-05-17T04:48:44;12.93;;;5.75;;
16665;SDS011;8446;50.998;6.250;2023-05-17T04:51:13;11.90;;;6.20;;
16665;SDS011;8446;50.998;6.250;2023-05-17T04:53:40;11.65;;;5.30;;
16665;SDS011;8446;50.998;6.250;2023-05-17T04:56:07;14.98;;;5.63;;
16665;SDS011;8446;50.998;6.250;2023-05-17T04:58:34;11.02;;;5.20;;
16665;SDS011;8446;50.998;6.250;2023-05-17T05:01:01;18.88;;;5.63;;
16665;SDS011;8446;50.998;6.250;2023-05-17T05:03:27;9.80;;;4.80;;
16665;SDS011;8446;50.998;6.250;2023-05-17T05:05:54;21.90;;;5.90;;
16665;SDS011;8446;50.998;6.250;2023-05-17T05:08:22;16.45;;;5.63;;
16665;SDS011;8446;50.998;6.250;2023-05-17T05:10:49;10.35;;;5.07;;
16665;SDS011;8446;50.998;6.250;2023-05-17T05:13:16;8.90;;;5.00;;
16665;SDS011;8446;50.998;6.250;2023-05-17T05:15:43;17.70;;;6.20;;
16665;SDS011;8446;50.998;6.250;2023-05-17T05:18:10;19.23;;;5.28;;
16665;SDS011;8446;50.998;6.250;2023-05-17T05:20:37;19.30;;;6.90;;
16665;SDS011;8446;50.998;6.250;2023-05-17T05:23:04;14.43;;;6.22;;
16665;SDS011;8446;50.998;6.250;2023-05-17T05:25:33;24.93;;;6.20;;
16665;SDS011;8446;50.998;6.250;2023-05-17T05:28:00;19.17;;;7.03;;
16665;SDS011;8446;50.998;6.250;2023-05-17T05:30:27;12.50;;;6.13;;
16665;SDS011;8446;50.998;6.250;2023-05-17T05:32:54;14.90;;;6.00;;
16665;SDS011;8446;50.998;6.250;2023-05-17T05:35:21;11.67;;;5.27;;
16665;SDS011;8446;50.998;6.250;2023-05-17T05:37:53;18.40;;;5.90;;
16665;SDS011;8446;50.998;6.250;2023-05-17T05:40:20;20.90;;;6.83;;
16665;SDS011;8446;50.998;6.250;2023-05-17T05:42:48;12.73;;;6.10;;
16665;SDS011;8446;50.998;6.250;2023-05-17T05:45:15;26.93;;;6.27;;
16665;SDS011;8446;50.998;6.250;2023-05-17T05:47:42;15.93;;;6.70;;
16665;SDS011;8446;50.998;6.250;2023-05-17T05:50:09;10.17;;;5.90;;
16665;SDS011;8446;50.998;6.250;2023-05-17T05:52:36;23.60;;;6.97;;
16665;SDS011;8446;50.998;6.250;2023-05-17T05:55:03;18.13;;;7.10;;
16665;SDS011;8446;50.998;6.250;2023-05-17T05:57:30;17.83;;;6.27;;
16665;SDS011;8446;50.998;6.250;2023-05-17T05:59:59;11.00;;;5.97;;
16665;SDS011;8446;50.998;6.250;2023-05-17T06:02:25;11.50;;;5.90;;
16665;SDS011;8446;50.998;6.250;2023-05-17T06:04:52;20.00;;;5.97;;
16665;SDS011;8446;50.998;6.250;2023-05-17T06:07:20;16.87;;;6.40;;
16665;SDS011;8446;50.998;6.250;2023-05-17T06:09:47;29.33;;;6.63;;
16665;SDS011;8446;50.998;6.250;2023-05-17T06:12:13;12.40;;;6.83;;
16665;SDS011;8446;50.998;6.250;2023-05-17T06:14:41;15.93;;;6.83;;
16665;SDS011;8446;50.998;6.250;2023-05-17T06:17:10;19.43;;;6.77;;
16665;SDS011;8446;50.998;6.250;2023-05-17T06:19:37;17.93;;;6.27;;
16665;SDS011;8446;50.998;6.250;2023-05-17T06:22:04;24.73;;;6.73;;
16665;SDS011;8446;50.998;6.250;2023-05-17T06:24:31;19.63;;;7.13;;
16665;SDS011;8446;50.998;6.250;2023-05-17T06:26:58;18.30;;;8.03;;
16665;SDS011;8446;50.998;6.250;2023-05-17T06:29:25;21.27;;;7.57;;
16665;SDS011;8446;50.998;6.250;2023-05-17T06:31:52;23.57;;;7.13;;
16665;SDS011;8446;50.998;6.250;2023-05-17T06:34:22;19.30;;;7.73;;
16665;SDS011;8446;50.998;6.250;2023-05-17T06:36:49;15.23;;;6.33;;
16665;SDS011;8446;50.998;6.250;2023-05-17T06:39:16;29.47;;;7.20;;
16665;SDS011;8446;50.998;6.250;2023-05-17T06:41:43;29.30;;;8.13;;
16665;SDS011;8446;50.998;6.250;2023-05-17T06:44:10;19.43;;;7.67;;
16665;SDS011;8446;50.998;6.250;2023-05-17T06:46:37;23.80;;;9.47;;
16665;SDS011;8446;50.998;6.250;2023-05-17T06:49:04;21.60;;;7.40;;
16665;SDS011;8446;50.998;6.250;2023-05-17T06:51:32;20.70;;;7.57;;
16665;SDS011;8446;50.998;6.250;2023-05-17T06:53:59;20.67;;;8.17;;
16665;SDS011;8446;50.998;6.250;2023-05-17T06:56:26;18.40;;;7.40;;
16665;SDS011;8446;50.998;6.250;2023-05-17T06:58:53;12.00;;;5.97;;
16665;SDS011;8446;50.998;6.250;2023-05-17T07:01:20;19.73;;;8.97;;
16665;SDS011;8446;50.998;6.250;2023-05-17T07:03:48;13.10;;;7.07;;
16665;SDS011;8446;50.998;6.250;2023-05-17T07:06:15;18.67;;;7.00;;
16665;SDS011;8446;50.998;6.250;2023-05-17T07:08:43;18.77;;;7.90;;
16665;SDS011;8446;50.998;6.250;2023-05-17T07:11:10;14.60;;;7.63;;
16665;SDS011;8446;50.998;6.250;2023-05-17T07:13:37;14.77;;;6.90;;
16665;SDS011;8446;50.998;6.250;2023-05-17T07:16:05;14.63;;;6.13;;
16665;SDS011;8446;50.998;6.250;2023-05-17T07:18:33;17.27;;;6.30;;
16665;SDS011;8446;50.998;6.250;2023-05-17T07:21:00;18.63;;;6.23;;
16665;SDS011;8446;50.998;6.250;2023-05-17T07:23:27;15.27;;;5.37;;
16665;SDS011;8446;50.998;6.250;2023-05-17T07:25:55;11.53;;;5.17;;
16665;SDS011;8446;50.998;6.250;2023-05-17T07:28:22;9.00;;;4.80;;
16665;SDS011;8446;50.998;6.250;2023-05-17T07:30:49;11.50;;;4.93;;
16665;SDS011;8446;50.998;6.250;2023-05-17T07:33:16;11.07;;;4.47;;
16665;SDS011;8446;50.998;6.250;2023-05-17T07:35:44;16.53;;;4.53;;
16665;SDS011;8446;50.998;6.250;2023-05-17T07:38:11;14.53;;;4.33;;
16665;SDS011;8446;50.998;6.250;2023-05-17T07:40:38;10.60;;;3.97;;
16665;SDS011;8446;50.998;6.250;2023-05-17T07:43:06;12.20;;;4.33;;
16665;SDS011;8446;50.998;6.250;2023-05-17T07:45:33;10.50;;;3.60;;
16665;SDS011;8446;50.998;6.250;2023-05-17T07:48:00;11.67;;;4.20;;
16665;SDS011;8446;50.998;6.250;2023-05-17T07:50:27;9.43;;;3.90;;
16665;SDS011;8446;50.998;6.250;2023-05-17T07:52:54;10.70;;;3.90;;
16665;SDS011;8446;50.998;6.250;2023-05-17T07:55:22;7.53;;;3.23;;
16665;SDS011;8446;50.998;6.250;2023-05-17T07:57:49;9.50;;;3.77;;
16665;SDS011;8446;50.998;6.250;2023-05-17T08:00:19;17.97;;;4.50;;
16665;SDS011;8446;50.998;6.250;2023-05-17T08:02:46;17.23;;;3.60;;
16665;SDS011;8446;50.998;6.250;2023-05-17T08:05:13;12.10;;;3.73;;
16665;SDS011;8446;50.998;6.250;2023-05-17T08:07:41;10.50;;;3.90;;
16665;SDS011;8446;50.998;6.250;2023-05-17T08:10:08;16.43;;;3.47;;
16665;SDS011;8446;50.998;6.250;2023-05-17T08:12:36;9.20;;;2.90;;
16665;SDS011;8446;50.998;6.250;2023-05-17T08:15:03;9.20;;;2.67;;
16665;SDS011;8446;50.998;6.250;2023-05-17T08:17:33;9.37;;;2.70;;
16665;SDS011;8446;50.998;6.250;2023-05-17T08:20:00;9.70;;;2.60;;
16665;SDS011;8446;50.998;6.250;2023-05-17T08:22:27;9.40;;;2.50;;
16665;SDS011;8446;50.998;6.250;2023-05-17T08:24:54;10.63;;;2.53;;
16665;SDS011;8446;50.998;6.250;2023-05-17T08:27:21;11.53;;;2.87;;
16665;SDS011;8446;50.998;6.250;2023-05-17T08:29:49;4.90;;;2.27;;
16665;SDS011;8446;50.998;6.250;2023-05-17T08:32:18;12.20;;;2.33;;
16665;SDS011;8446;50.998;6.250;2023-05-17T08:34:49;5.80;;;1.80;;
16665;SDS011;8446;50.998;6.250;2023-05-17T08:37:16;17.63;;;2.23;;
16665;SDS011;8446;50.998;6.250;2023-05-17T08:39:43;9.40;;;1.90;;
16665;SDS011;8446;50.998;6.250;2023-05-17T08:42:10;5.40;;;1.70;;
16665;SDS011;8446;50.998;6.250;2023-05-17T08:44:38;11.80;;;2.40;;
16665;SDS011;8446;50.998;6.250;2023-05-17T08:47:05;7.40;;;2.43;;
16665;SDS011;8446;50.998;6.250;2023-05-17T08:49:35;9.00;;;2.17;;
16665;SDS011;8446;50.998;6.250;2023-05-17T08:52:03;9.90;;;2.63;;
16665;SDS011;8446;50.998;6.250;2023-05-17T08:54:34;10.90;;;2.23;;
16665;SDS011;8446;50.998;6.250;2023-05-17T08:57:01;9.10;;;2.40;;
16665;SDS011;8446;50.998;6.250;2023-05-17T08:59:31;10.87;;;1.87;;
16665;SDS011;8446;50.998;6.250;2023-05-17T09:02:00;5.30;;;2.10;;
16665;SDS011;8446;50.998;6.250;2023-05-17T09:04:27;23.70;;;3.67;;
16665;SDS011;8446;50.998;6.250;2023-05-17T09:06:55;17.67;;;3.00;;
16665;SDS011;8446;50.998;6.250;2023-05-17T09:09:23;8.57;;;2.00;;
16665;SDS011;8446;50.998;6.250;2023-05-17T09:11:52;10.10;;;2.30;;
16665;SDS011;8446;50.998;6.250;2023-05-17T09:14:19;8.07;;;2.43;;
16665;SDS011;8446;50.998;6.250;2023-05-17T09:16:49;12.53;;;1.97;;
16665;SDS011;8446;50.998;6.250;2023-05-17T09:19:22;6.70;;;2.20;;
16665;SDS011;8446;50.998;6.250;2023-05-17T09:21:49;7.83;;;1.63;;
16665;SDS011;8446;50.998;6.250;2023-05-17T09:24:17;9.47;;;1.87;;
16665;SDS011;8446;50.998;6.250;2023-05-17T09:26:46;6.33;;;2.10;;
16665;SDS011;8446;50.998;6.250;2023-05-17T09:29:13;6.10;;;1.80;;
16665;SDS011;8446;50.998;6.250;2023-05-17T09:31:41;9.10;;;2.37;;
16665;SDS011;8446;50.998;6.250;2023-05-17T09:34:08;5.93;;;1.90;;
16665;SDS011;8446;50.998;6.250;2023-05-17T09:36:36;10.10;;;2.23;;
16665;SDS011;8446;50.998;6.250;2023-05-17T09:39:05;5.90;;;2.00;;
16665;SDS011;8446;50.998;6.250;2023-05-17T09:41:39;11.00;;;2.97;;
16665;SDS011;8446;50.998;6.250;2023-05-17T09:44:09;8.00;;;1.70;;
16665;SDS011;8446;50.998;6.250;2023-05-17T09:46:37;7.73;;;2.10;;
16665;SDS011;8446;50.998;6.250;2023-05-17T09:49:06;8.17;;;2.10;;
16665;SDS011;8446;50.998;6.250;2023-05-17T09:51:34;11.57;;;2.03;;
16665;SDS011;8446;50.998;6.250;2023-05-17T09:54:03;4.33;;;1.77;;
16665;SDS011;8446;50.998;6.250;2023-05-17T09:56:32;10.17;;;2.10;;
16665;SDS011;8446;50.998;6.250;2023-05-17T09:59:00;4.67;;;1.70;;
16665;SDS011;8446;50.998;6.250;2023-05-17T10:01:30;11.33;;;2.13;;
16665;SDS011;8446;50.998;6.250;2023-05-17T10:03:58;12.40;;;2.40;;
16665;SDS011;8446;50.998;6.250;2023-05-17T10:06:27;15.83;;;2.30;;
16665;SDS011;8446;50.998;6.250;2023-05-17T10:08:56;8.33;;;1.90;;
16665;SDS011;8446;50.998;6.250;2023-05-17T10:11:25;8.00;;;1.90;;
16665;SDS011;8446;50.998;6.250;2023-05-17T10:14:01;4.47;;;2.60;;
16665;SDS011;8446;50.998;6.250;2023-05-17T10:16:33;5.97;;;1.90;;
16665;SDS011;8446;50.998;6.250;2023-05-17T10:19:02;5.60;;;1.90;;
16665;SDS011;8446;50.998;6.250;2023-05-17T10:21:29;3.60;;;1.70;;
16665;SDS011;8446;50.998;6.250;2023-05-17T10:23:57;8.67;;;2.13;;
16665;SDS011;8446;50.998;6.250;2023-05-17T10:26:25;10.93;;;2.60;;
16665;SDS011;8446;50.998;6.250;2023-05-17T10:28:54;8.97;;;2.37;;
16665;SDS011;8446;50.998;6.250;2023-05-17T10:31:24;7.63;;;2.23;;
16665;SDS011;8446;50.998;6.250;2023-05-17T10:33:54;6.57;;;2.43;;
16665;SDS011;8446;50.998;6.250;2023-05-17T10:36:22;6.73;;;2.50;;
16665;SDS011;8446;50.998;6.250;2023-05-17T10:38:50;10.80;;;2.20;;
16665;SDS011;8446;50.998;6.250;2023-05-17T10:41:18;14.80;;;2.20;;
16665;SDS011;8446;50.998;6.250;2023-05-17T10:43:48;9.27;;;2.57;;
16665;SDS011;8446;50.998;6.250;2023-05-17T10:46:16;6.27;;;2.87;;
16665;SDS011;8446;50.998;6.250;2023-05-17T10:48:46;7.77;;;2.20;;
16665;SDS011;8446;50.998;6.250;2023-05-17T10:51:19;5.57;;;2.10;;
16665;SDS011;8446;50.998;6.250;2023-05-17T10:54:02;9.67;;;2.10;;
16665;SDS011;8446;50.998;6.250;2023-05-17T10:56:30;8.53;;;1.97;;
16665;SDS011;8446;50.998;6.250;2023-05-17T10:59:17;5.80;;;2.37;;
16665;SDS011;8446;50.998;6.250;2023-05-17T11:01:49;7.07;;;2.37;;
16665;SDS011;8446;50.998;6.250;2023-05-17T11:04:21;6.77;;;2.43;;
16665;SDS011;8446;50.998;6.250;2023-05-17T11:07:18;6.10;;;1.93;;
16665;SDS011;8446;50.998;6.250;2023-05-17T11:09:54;4.87;;;1.93;;
16665;SDS011;8446;50.998;6.250;2023-05-17T11:12:32;6.73;;;1.90;;
16665;SDS011;8446;50.998;6.250;2023-05-17T11:15:04;8.50;;;2.60;;
16665;SDS011;8446;50.998;6.250;2023-05-17T11:17:33;12.13;;;2.43;;
16665;SDS011;8446;50.998;6.250;2023-05-17T11:20:02;8.93;;;2.17;;
16665;SDS011;8446;50.998;6.250;2023-05-17T11:22:36;12.50;;;2.40;;
16665;SDS011;8446;50.998;6.250;2023-05-17T11:25:08;7.63;;;2.10;;
16665;SDS011;8446;50.998;6.250;2023-05-17T11:27:39;20.97;;;2.83;;
16665;SDS011;8446;50.998;6.250;2023-05-17T11:30:16;9.20;;;2.30;;
16665;SDS011;8446;50.998;6.250;2023-05-17T11:32:50;11.07;;;2.43;;
16665;SDS011;8446;50.998;6.250;2023-05-17T11:35:22;4.57;;;1.80;;
16665;SDS011;8446;50.998;6.250;2023-05-17T11:37:52;10.77;;;2.20;;
16665;SDS011;8446;50.998;6.250;2023-05-17T11:40:37;10.70;;;2.17;;
16665;SDS011;8446;50.998;6.250;2023-05-17T11:43:08;7.63;;;2.23;;
16665;SDS011;8446;50.998;6.250;2023-05-17T11:45:42;13.93;;;2.40;;
16665;SDS011;8446;50.998;6.250;2023-05-17T11:48:14;9.37;;;2.80;;
16665;SDS011;8446;50.998;6.250;2023-05-17T11:50:42;5.03;;;2.20;;
16665;SDS011;8446;50.998;6.250;2023-05-17T11:53:12;6.43;;;2.40;;
16665;SDS011;8446;50.998;6.250;2023-05-17T11:55:40;12.43;;;3.30;;
16665;SDS011;8446;50.998;6.250;2023-05-17T11:58:08;15.40;;;2.67;;
16665;SDS011;8446;50.998;6.250;2023-05-17T12:00:36;5.97;;;2.07;;
16665;SDS011;8446;50.998;6.250;2023-05-17T12:03:14;10.57;;;2.10;;
16665;SDS011;8446;50.998;6.250;2023-05-17T12:05:42;6.50;;;2.57;;
16665;SDS011;8446;50.998;6.250;2023-05-17T12:08:13;3.33;;;2.00;;
16665;SDS011;8446;50.998;6.250;2023-05-17T12:10:43;8.20;;;2.43;;
16665;SDS011;8446;50.998;6.250;2023-05-17T12:13:11;5.50;;;2.30;;
16665;SDS011;8446;50.998;6.250;2023-05-17T12:15:38;8.07;;;2.47;;
16665;SDS011;8446;50.998;6.250;2023-05-17T12:18:06;13.77;;;2.70;;
16665;SDS011;8446;50.998;6.250;2023-05-17T12:20:33;7.90;;;2.77;;
16665;SDS011;8446;50.998;6.250;2023-05-17T12:23:02;5.80;;;2.27;;
16665;SDS011;8446;50.998;6.250;2023-05-17T12:25:30;12.00;;;2.40;;
16665;SDS011;8446;50.998;6.250;2023-05-17T12:28:11;6.33;;;2.27;;
16665;SDS011;8446;50.998;6.250;2023-05-17T12:30:38;6.20;;;2.30;;
16665;SDS011;8446;50.998;6.250;2023-05-17T12:33:05;8.17;;;2.10;;
16665;SDS011;8446;50.998;6.250;2023-05-17T12:35:33;10.40;;;2.43;;
16665;SDS011;8446;50.998;6.250;2023-05-17T12:38:00;6.50;;;2.20;;
16665;SDS011;8446;50.998;6.250;2023-05-17T12:40:27;7.60;;;2.20;;
16665;SDS011;8446;50.998;6.250;2023-05-17T12:43:00;11.50;;;2.03;;
16665;SDS011;8446;50.998;6.250;2023-05-17T12:45:27;5.53;;;1.73;;
16665;SDS011;8446;50.998;6.250;2023-05-17T12:47:54;6.30;;;1.57;;
16665;SDS011;8446;50.998;6.250;2023-05-17T12:50:24;6.80;;;1.70;;
16665;SDS011;8446;50.998;6.250;2023-05-17T12:52:51;4.50;;;1.70;;
16665;SDS011;8446;50.998;6.250;2023-05-17T12:55:17;10.87;;;2.30;;
16665;SDS011;8446;50.998;6.250;2023-05-17T12:57:49;13.03;;;2.30;;
16665;SDS011;8446;50.998;6.250;2023-05-17T13:00:16;5.17;;;1.87;;
16665;SDS011;8446;50.998;6.250;2023-05-17T13:02:44;5.53;;;1.93;;
16665;SDS011;8446;50.998;6.250;2023-05-17T13:05:14;2.07;;;1.53;;
16665;SDS011;8446;50.998;6.250;2023-05-17T13:07:42;4.93;;;1.67;;
16665;SDS011;8446;50.998;6.250;2023-05-17T13:10:19;9.93;;;2.30;;
16665;SDS011;8446;50.998;6.250;2023-05-17T13:12:55;5.20;;;1.87;;
16665;SDS011;8446;50.998;6.250;2023-05-17T13:15:28;3.87;;;1.60;;
16665;SDS011;8446;50.998;6.250;2023-05-17T13:17:55;5.13;;;1.70;;
16665;SDS011;8446;50.998;6.250;2023-05-17T13:20:25;3.00;;;1.30;;
16665;SDS011;8446;50.998;6.250;2023-05-17T13:22:52;5.47;;;1.50;;
16665;SDS011;8446;50.998;6.250;2023-05-17T13:25:19;7.90;;;2.20;;
16665;SDS011;8446;50.998;6.250;2023-05-17T13:27:46;10.20;;;1.73;;
16665;SDS011;8446;50.998;6.250;2023-05-17T13:30:15;4.40;;;1.70;;
16665;SDS011;8446;50.998;6.250;2023-05-17T13:32:42;4.80;;;2.03;;
16665;SDS011;8446;50.998;6.250;2023-05-17T13:35:09;7.97;;;2.40;;
16665;SDS011;8446;50.998;6.250;2023-05-17T13:37:36;4.67;;;1.80;;
16665;SDS011;8446;50.998;6.250;2023-05-17T13:40:03;6.60;;;1.73;;
16665;SDS011;8446;50.998;6.250;2023-05-17T13:42:32;4.77;;;1.70;;
16665;SDS011;8446;50.998;6.250;2023-05-17T13:44:59;8.33;;;1.70;;
16665;SDS011;8446;50.998;6.250;2023-05-17T13:47:27;11.10;;;2.37;;
16665;SDS011;8446;50.998;6.250;2023-05-17T13:49:56;6.80;;;1.90;;
16665;SDS011;8446;50.998;6.250;2023-05-17T13:52:22;6.20;;;2.13;;
16665;SDS011;8446;50.998;6.250;2023-05-17T13:54:49;3.90;;;1.90;;
16665;SDS011;8446;50.998;6.250;2023-05-17T13:57:16;7.40;;;1.77;;
16665;SDS011;8446;50.998;6.250;2023-05-17T13:59:43;7.83;;;2.10;;
16665;SDS011;8446;50.998;6.250;2023-05-17T14:02:10;4.53;;;1.80;;
16665;SDS011;8446;50.998;6.250;2023-05-17T14:04:38;10.47;;;2.03;;
16665;SDS011;8446;50.998;6.250;2023-05-17T14:07:05;7.10;;;2.30;;
16665;SDS011;8446;50.998;6.250;2023-05-17T14:09:32;7.63;;;2.10;;
16665;SDS011;8446;50.998;6.250;2023-05-17T14:12:00;9.60;;;2.47;;
16665;SDS011;8446;50.998;6.250;2023-05-17T14:14:28;10.93;;;2.40;;
16665;SDS011;8446;50.998;6.250;2023-05-17T14:16:55;5.07;;;1.67;;
16665;SDS011;8446;50.998;6.250;2023-05-17T14:19:22;5.07;;;2.00;;
16665;SDS011;8446;50.998;6.250;2023-05-17T14:21:50;7.73;;;2.10;;
16665;SDS011;8446;50.998;6.250;2023-05-17T14:24:17;9.27;;;2.23;;
16665;SDS011;8446;50.998;6.250;2023-05-17T14:26:44;7.63;;;2.30;;
16665;SDS011;8446;50.998;6.250;2023-05-17T14:29:10;4.27;;;1.70;;
16665;SDS011;8446;50.998;6.250;2023-05-17T14:31:37;2.53;;;1.40;;
16665;SDS011;8446;50.998;6.250;2023-05-17T14:34:05;2.73;;;1.80;;
16665;SDS011;8446;50.998;6.250;2023-05-17T14:36:32;5.20;;;1.87;;
16665;SDS011;8446;50.998;6.250;2023-05-17T14:39:03;5.73;;;1.77;;
16665;SDS011;8446;50.998;6.250;2023-05-17T14:41:30;11.77;;;2.03;;
16665;SDS011;8446;50.998;6.250;2023-05-17T14:43:57;5.83;;;1.87;;
16665;SDS011;8446;50.998;6.250;2023-05-17T14:46:24;6.40;;;2.00;;
16665;SDS011;8446;50.998;6.250;2023-05-17T14:48:51;5.13;;;1.83;;
16665;SDS011;8446;50.998;6.250;2023-05-17T14:51:20;9.60;;;2.37;;
16665;SDS011;8446;50.998;6.250;2023-05-17T14:53:47;4.93;;;1.73;;
16665;SDS011;8446;50.998;6.250;2023-05-17T14:56:17;10.43;;;2.17;;
16665;SDS011;8446;50.998;6.250;2023-05-17T14:58:43;6.87;;;1.87;;
16665;SDS011;8446;50.998;6.250;2023-05-17T15:01:11;5.40;;;1.70;;
16665;SDS011;8446;50.998;6.250;2023-05-17T15:03:39;1.60;;;1.47;;